Time;durP1;ratioP1;P1;durP2;ratioP2;P2;SDS_P1;SDS_P2;PMS_P1;PMS_P2;Temp;Humidity;BMP_temperature;BMP_pressure;BME280_temperature;BME280_humidity;BME280_pressure;Samples;Min_cycle;Max_cycle;Signal;HPM_P1;HPM_P2
2022/01/01 03:07:42;;;;;;;34.60;28.48;;;;;;;5.55;83.51;100598.31;5025940;28;20612;-75
2022/01/01 03:10:08;;;;;;;37.67;28.80;;;;;;;5.23;84.36;100595.84;5009038;28;20050;-77
2022/01/01 03:12:34;;;;;;;34.90;28.92;;;;;;;5.16;84.80;100602.63;5012561;28;20176;-79
2022/01/01 03:14:59;;;;;;;42.72;30.23;;;;;;;5.43;84.54;100611.91;5012968;28;20369;-66
2022/01/01 03:17:25;;;;;;;40.80;29.90;;;;;;;5.28;84.17;100595.09;5011042;28;20057;-76
2022/01/01 03:19:50;;;;;;;40.30;28.77;;;;;;;5.35;84.42;100609.16;5011855;28;20037;-74
2022/01/01 03:22:16;;;;;;;42.15;32.28;;;;;;;5.36;84.48;100615.22;5019505;28;20060;-73
2022/01/01 03:24:41;;;;;;;43.47;30.42;;;;;;;5.33;84.45;100594.34;5014778;28;20057;-73
2022/01/01 03:27:07;;;;;;;43.38;29.88;;;;;;;5.32;84.71;100618.63;5021146;28;20385;-74
2022/01/01 03:33:42;;;;;;;37.42;31.38;;;;;;;5.14;85.00;100593.00;5047684;28;20619;-73
2022/01/01 03:36:07;;;;;;;42.72;30.65;;;;;;;5.21;85.05;100611.41;5005357;28;20129;-74
2022/01/01 03:38:33;;;;;;;46.15;34.95;;;;;;;5.27;84.59;100585.56;5008699;28;20064;-74
2022/01/01 03:40:58;;;;;;;47.83;33.67;;;;;;;5.28;84.19;100586.44;5008704;28;20045;-74
2022/01/01 03:43:24;;;;;;;40.42;29.92;;;;;;;5.33;84.24;100621.22;4996545;28;20418;-75
2022/01/01 03:45:49;;;;;;;38.75;30.52;;;;;;;5.32;84.50;100613.41;5002804;28;20054;-75
2022/01/01 03:49:42;;;;;;;44.38;31.45;;;;;;;5.25;84.33;100617.56;5023477;27;20619;-74
2022/01/01 03:52:08;;;;;;;40.03;29.98;;;;;;;5.14;84.97;100629.44;5033356;28;20456;-74
2022/01/01 03:54:34;;;;;;;43.42;30.45;;;;;;;5.21;84.28;100603.59;5023794;28;20059;-74
2022/01/01 03:57:00;;;;;;;42.25;31.08;;;;;;;5.33;84.71;100623.84;5023246;28;20028;-74
2022/01/01 04:03:06;;;;;;;43.45;32.53;;;;;;;5.29;84.42;100614.19;5013122;28;20044;-74
2022/01/01 04:05:33;;;;;;;48.03;33.15;;;;;;;5.31;84.21;100607.31;5021313;28;21004;-75
2022/01/01 04:07:58;;;;;;;45.67;30.95;;;;;;;5.23;84.77;100606.25;5048385;28;20095;-76
2022/01/01 04:10:24;;;;;;;47.50;35.67;;;;;;;5.15;84.85;100585.25;5021206;28;20049;-75
2022/01/01 04:12:49;;;;;;;48.08;31.95;;;;;;;5.24;84.79;100602.78;5017449;28;20041;-75
2022/01/01 04:15:15;;;;;;;44.15;32.85;;;;;;;5.28;84.36;100618.50;5017052;28;20485;-75
2022/01/01 04:17:41;;;;;;;40.58;32.28;;;;;;;5.12;84.51;100620.69;5011851;28;20491;-87
2022/01/01 04:20:07;;;;;;;51.08;32.85;;;;;;;5.29;84.42;100627.19;5010423;28;20437;-75
2022/01/01 04:22:32;;;;;;;43.20;34.15;;;;;;;5.12;84.64;100611.16;5014599;28;20046;-75
2022/01/01 04:24:58;;;;;;;51.30;34.42;;;;;;;5.09;84.64;100621.50;5021697;28;20049;-75
2022/01/01 04:28:00;;;;;;;45.75;32.53;;;;;;;5.17;84.71;100629.50;5016979;28;20037;-74
2022/01/01 04:30:29;;;;;;;44.05;34.00;;;;;;;5.17;84.83;100609.56;5016405;28;20042;-76
2022/01/01 04:32:55;;;;;;;56.08;34.53;;;;;;;5.05;84.81;100584.13;5014574;28;20038;-77
2022/01/01 04:35:21;;;;;;;44.17;31.83;;;;;;;5.15;84.57;100594.75;5019378;28;20026;-74
2022/01/01 04:37:46;;;;;;;43.30;33.90;;;;;;;5.32;84.15;100584.78;5012606;28;20405;-74
2022/01/01 04:40:12;;;;;;;47.55;32.60;;;;;;;5.37;83.88;100599.66;5006330;28;20386;-74
2022/01/01 04:42:38;;;;;;;41.75;32.90;;;;;;;5.38;83.36;100601.41;5015703;28;20096;-73
2022/01/01 04:45:04;;;;;;;44.78;32.10;;;;;;;5.21;83.80;100582.78;5030377;28;20053;-74
2022/01/01 04:47:30;;;;;;;40.92;31.63;;;;;;;4.94;84.71;100585.59;5043511;28;20021;-74
2022/01/01 04:49:56;;;;;;;45.42;31.98;;;;;;;4.91;85.16;100598.50;5018862;28;20038;-74
2022/01/01 04:52:21;;;;;;;44.80;32.03;;;;;;;4.77;85.45;100589.47;5019757;28;20054;-73
2022/01/01 04:54:47;;;;;;;45.42;34.10;;;;;;;4.84;85.52;100584.47;5026997;28;20035;-73
2022/01/01 04:57:13;;;;;;;47.53;32.72;;;;;;;5.13;84.85;100596.44;5021998;28;20033;-78
2022/01/01 04:59:40;;;;;;;47.53;34.13;;;;;;;5.16;84.60;100612.16;5005568;28;20034;-76
2022/01/01 05:02:06;;;;;;;40.10;31.30;;;;;;;5.07;84.90;100598.06;4993912;28;20414;-73
2022/01/01 05:04:49;;;;;;;46.47;35.05;;;;;;;5.13;84.37;100599.03;5004323;28;20050;-75
2022/01/01 05:07:52;;;;;;;50.63;34.90;;;;;;;5.13;84.57;100625.97;5003789;28;20034;-75
2022/01/01 05:13:40;;;;;;;42.20;33.45;;;;;;;5.14;84.89;100614.69;5010007;28;20045;-73
2022/01/01 05:16:05;;;;;;;41.80;31.30;;;;;;;5.07;84.37;100621.47;5002916;28;20388;-73
2022/01/01 05:18:31;;;;;;;40.70;31.67;;;;;;;4.88;84.87;100628.75;4994797;28;20084;-73
2022/01/01 05:20:56;;;;;;;37.70;28.80;;;;;;;4.96;84.69;100633.28;5017798;28;20072;-72
2022/01/01 05:23:43;;;;;;;41.60;33.00;;;;;;;4.78;85.54;100664.91;5028906;28;20045;-73
2022/01/01 05:26:08;;;;;;;47.53;32.25;;;;;;;5.05;84.60;100635.25;5022204;28;20478;-73
2022/01/01 05:28:34;;;;;;;42.60;31.67;;;;;;;5.03;84.27;100639.53;5014189;28;20060;-72
2022/01/01 05:30:59;;;;;;;41.10;33.30;;;;;;;5.07;84.29;100650.06;5010326;28;20042;-73
2022/01/01 05:33:50;;;;;;;38.00;31.73;;;;;;;5.18;84.63;100673.75;5014629;28;20037;-73
2022/01/01 05:36:18;;;;;;;45.17;33.50;;;;;;;5.16;84.48;100664.16;5009987;28;20366;-72
2022/01/01 05:38:46;;;;;;;49.92;34.53;;;;;;;5.02;83.95;100640.41;5004690;28;20036;-72
2022/01/01 05:41:12;;;;;;;39.25;31.50;;;;;;;5.25;83.95;100667.88;5009348;28;20470;-73
2022/01/01 05:43:38;;;;;;;42.10;32.95;;;;;;;4.88;84.43;100634.84;5006938;28;20045;-75
2022/01/01 05:46:04;;;;;;;45.63;32.33;;;;;;;5.00;84.46;100668.94;4999218;28;20038;-74
2022/01/01 05:48:30;;;;;;;46.00;35.13;;;;;;;5.16;84.05;100677.16;5002214;28;20064;-74
2022/01/01 05:51:43;;;;;;;48.47;32.80;;;;;;;5.18;83.49;100652.09;5081490;27;20635;-75
2022/01/01 05:54:08;;;;;;;50.85;34.42;;;;;;;5.14;83.71;100653.72;5024319;28;20426;-75
2022/01/01 05:57:09;;;;;;;49.13;35.15;;;;;;;5.13;83.35;100631.16;5027519;28;20030;-74
2022/01/01 05:59:40;;;;;;;52.22;30.70;;;;;;;4.93;84.11;100645.34;5023044;28;20050;-82
2022/01/01 06:03:44;;;;;;;48.33;36.13;;;;;;;5.02;83.88;100651.66;5082032;27;20604;-73
2022/01/01 06:06:11;;;;;;;52.00;35.00;;;;;;;5.02;83.94;100656.00;5066148;28;20118;-74
2022/01/01 06:08:43;;;;;;;44.10;31.40;;;;;;;5.04;83.85;100638.72;5082095;28;20063;-73
2022/01/01 06:11:08;;;;;;;44.60;32.60;;;;;;;5.12;83.70;100634.59;5064217;28;20033;-75
2022/01/01 06:13:34;;;;;;;47.95;33.60;;;;;;;5.34;83.44;100661.13;5052751;28;20495;-74
2022/01/01 06:15:59;;;;;;;43.22;32.42;;;;;;;5.23;83.23;100653.06;5056327;28;20064;-73
2022/01/01 06:18:39;;;;;;;52.78;36.05;;;;;;;5.02;83.43;100630.88;5045885;28;20036;-73
2022/01/01 06:21:04;;;;;;;42.55;33.28;;;;;;;4.99;83.57;100623.00;5074143;28;20016;-73
2022/01/01 06:23:30;;;;;;;51.67;35.50;;;;;;;5.26;83.75;100684.38;5077677;28;20035;-72
2022/01/01 06:25:55;;;;;;;41.63;34.75;;;;;;;5.32;83.19;100655.03;5065028;28;20110;-73
2022/01/01 06:32:23;;;;;;;43.28;33.53;;;;;;;5.20;84.01;100635.66;5082592;28;20585;-72
2022/01/01 06:34:48;;;;;;;46.35;34.58;;;;;;;5.24;84.01;100619.31;5072843;28;20044;-73
2022/01/01 06:37:14;;;;;;;54.05;38.70;;;;;;;5.02;84.51;100560.66;5086876;28;20039;-73
2022/01/01 06:39:40;;;;;;;57.28;37.63;;;;;;;4.99;85.31;100531.97;5088875;28;20036;-73
2022/01/01 06:42:33;;;;;;;43.65;33.53;;;;;;;4.86;85.94;100507.38;5079685;28;20424;-72
2022/01/01 06:44:58;;;;;;;53.72;34.95;;;;;;;4.89;86.20;100516.97;5069798;28;20461;-73
2022/01/01 06:47:25;;;;;;;45.22;33.17;;;;;;;5.06;85.13;100609.31;5074186;28;20016;-74
2022/01/01 06:49:50;;;;;;;57.95;35.85;;;;;;;5.08;85.77;100703.00;5077480;28;20048;-73
2022/01/01 06:52:16;;;;;;;42.15;34.78;;;;;;;5.29;85.45;100682.72;5069304;28;20098;-76
2022/01/01 06:54:41;;;;;;;50.75;35.85;;;;;;;5.35;84.78;100707.16;5072298;28;20093;-73
2022/01/01 06:59:44;;;;;;;55.13;39.25;;;;;;;5.63;83.87;100752.97;5058353;27;20632;-72
2022/01/01 07:02:10;;;;;;;50.42;36.17;;;;;;;5.54;83.75;100748.41;5021816;28;20125;-72
2022/01/01 07:04:35;;;;;;;46.67;38.80;;;;;;;5.36;84.08;100725.41;5021394;28;20544;-73
2022/01/01 07:07:01;;;;;;;51.17;37.40;;;;;;;5.54;83.84;100718.91;5025772;28;20376;-73
2022/01/01 07:09:26;;;;;;;50.47;37.20;;;;;;;5.67;83.27;100760.91;5029224;28;20034;-75
2022/01/01 07:11:51;;;;;;;50.90;38.15;;;;;;;5.66;82.93;100755.66;5027340;28;20381;-74
2022/01/01 07:14:21;;;;;;;41.47;35.75;;;;;;;5.58;82.26;100726.81;5022585;28;20036;-75
2022/01/01 07:16:56;;;;;;;44.13;34.53;;;;;;;5.67;83.12;100744.41;5036966;28;20454;-75
2022/01/01 07:21:45;;;;;;;44.05;34.35;;;;;;;5.63;82.46;100720.00;5050777;28;20705;-84
2022/01/01 07:24:10;;;;;;;47.75;34.83;;;;;;;5.50;82.73;100725.72;5034942;28;20466;-74
2022/01/01 07:26:36;;;;;;;51.92;37.85;;;;;;;5.82;82.34;100731.75;5015500;28;20029;-75
2022/01/01 07:29:01;;;;;;;51.47;37.03;;;;;;;5.97;82.29;100746.91;5016140;28;20529;-74
2022/01/01 07:31:27;;;;;;;48.75;35.00;;;;;;;5.81;82.33;100727.41;5013314;28;20428;-75
2022/01/01 07:33:52;;;;;;;41.92;33.20;;;;;;;5.42;84.06;100725.53;5021222;28;20053;-74
2022/01/01 07:36:18;;;;;;;43.10;32.97;;;;;;;5.92;83.00;100717.22;5030462;28;20030;-74
2022/01/01 07:38:43;;;;;;;48.65;35.88;;;;;;;6.24;82.17;100728.44;5027087;28;20030;-73
2022/01/01 07:43:46;;;;;;;44.17;33.30;;;;;;;6.31;81.30;100732.94;5020148;28;20640;-72
2022/01/01 07:46:12;;;;;;;45.45;35.00;;;;;;;6.27;81.21;100717.19;5017086;28;20064;-72
2022/01/01 07:48:37;;;;;;;51.22;36.17;;;;;;;6.26;81.00;100718.94;5014188;28;20512;-73
2022/01/01 07:51:03;;;;;;;49.22;36.17;;;;;;;6.13;80.76;100716.88;5022490;28;20157;-73
2022/01/01 07:53:28;;;;;;;45.40;35.65;;;;;;;6.05;81.59;100728.88;5033736;28;20045;-73
2022/01/01 07:55:54;;;;;;;53.95;35.97;;;;;;;6.25;81.33;100721.47;5022201;28;20065;-72
2022/01/01 07:58:19;;;;;;;48.50;35.17;;;;;;;6.57;80.78;100724.81;5016067;28;21187;-74
2022/01/01 08:00:45;;;;;;;49.58;34.78;;;;;;;6.54;81.01;100715.19;5018004;28;20083;-83
2022/01/01 08:03:11;;;;;;;57.08;37.25;;;;;;;6.58;80.33;100697.00;5016956;28;20037;-74
2022/01/01 08:05:38;;;;;;;53.72;36.45;;;;;;;6.70;80.20;100715.53;5017231;28;20032;-74
2022/01/01 08:08:04;;;;;;;54.38;36.97;;;;;;;6.59;79.64;100697.03;5031751;28;20077;-78
2022/01/01 08:10:30;;;;;;;55.35;36.20;;;;;;;6.70;79.55;100702.50;5020960;28;20049;-73
2022/01/01 08:12:57;;;;;;;45.10;35.20;;;;;;;6.96;79.92;100709.09;5023480;28;20056;-83
2022/01/01 08:17:49;;;;;;;50.17;34.78;;;;;;;6.81;80.20;100679.22;5106954;27;20526;-77
2022/01/01 08:20:14;;;;;;;48.13;34.40;;;;;;;6.92;80.19;100715.09;5070886;28;20028;-73
2022/01/01 08:22:40;;;;;;;46.40;36.00;;;;;;;6.53;80.29;100717.75;5067651;28;20044;-74
2022/01/01 08:25:06;;;;;;;46.38;36.30;;;;;;;6.33;81.19;100704.31;5069494;28;20098;-73
2022/01/01 08:27:32;;;;;;;53.13;34.00;;;;;;;6.60;80.54;100693.56;5050583;28;20037;-75
2022/01/01 08:30:00;;;;;;;44.15;35.80;;;;;;;7.13;80.00;100706.78;5069537;28;20025;-73
2022/01/01 08:32:25;;;;;;;41.78;33.42;;;;;;;7.38;79.05;100686.38;5091226;28;20024;-73
2022/01/01 08:34:52;;;;;;;48.67;34.17;;;;;;;7.61;79.10;100726.81;5073478;28;20036;-73
2022/01/01 08:37:20;;;;;;;48.40;35.10;;;;;;;7.40;78.88;100709.03;5063811;28;20508;-73
2022/01/01 08:43:07;;;;;;;50.22;36.88;;;;;;;7.53;79.17;100735.34;5072751;28;20154;-89
2022/01/01 08:45:37;;;;;;;54.95;38.05;;;;;;;7.68;78.44;100732.13;5067468;28;20120;-74
2022/01/01 08:48:06;;;;;;;53.55;36.70;;;;;;;7.64;78.30;100712.06;5074078;28;20344;-76
2022/01/01 08:50:33;;;;;;;43.53;30.83;;;;;;;7.71;77.85;100706.94;5072162;28;20456;-74
2022/01/01 08:52:59;;;;;;;49.65;35.03;;;;;;;7.96;77.46;100716.06;5052390;28;20480;-73
2022/01/01 08:55:27;;;;;;;49.78;36.72;;;;;;;7.78;76.92;100692.25;5090903;28;20066;-73
2022/01/01 08:57:54;;;;;;;43.22;33.88;;;;;;;7.91;76.39;100709.00;5078722;28;20068;-73
2022/01/01 09:00:21;;;;;;;46.00;34.13;;;;;;;8.01;75.87;100697.84;5068519;28;20119;-75
2022/01/01 09:02:47;;;;;;;46.55;34.42;;;;;;;7.94;76.39;100672.47;5067492;28;20066;-75
2022/01/01 09:05:12;;;;;;;52.33;36.00;;;;;;;8.30;76.50;100698.25;5069915;28;20051;-73
2022/01/01 09:07:38;;;;;;;46.60;34.35;;;;;;;8.26;75.58;100672.91;5073181;28;20087;-75
2022/01/01 09:10:05;;;;;;;44.28;34.25;;;;;;;8.28;75.66;100688.63;5066185;28;20041;-78
2022/01/01 09:12:30;;;;;;;49.22;34.92;;;;;;;8.24;75.06;100670.28;5065276;28;20064;-77
2022/01/01 09:14:56;;;;;;;47.15;35.30;;;;;;;8.53;74.91;100690.75;5063933;28;20464;-73
2022/01/01 09:17:23;;;;;;;49.95;35.65;;;;;;;8.51;75.08;100670.66;5047080;28;20048;-74
2022/01/01 09:19:49;;;;;;;42.13;34.22;;;;;;;8.48;74.69;100658.44;5031054;28;20588;-74
2022/01/01 09:22:15;;;;;;;47.80;37.05;;;;;;;8.64;74.88;100663.00;5031872;28;20028;-76
2022/01/01 09:24:40;;;;;;;52.10;36.88;;;;;;;8.70;74.57;100651.72;5049272;28;20102;-74
2022/01/01 09:27:07;;;;;;;52.65;35.10;;;;;;;8.75;74.64;100655.25;5039926;28;20432;-72
2022/01/01 09:33:54;;;;;;;43.78;36.65;;;;;;;8.93;74.28;100667.66;5105414;27;20546;-73
2022/01/01 09:36:20;;;;;;;48.85;34.70;;;;;;;8.90;74.33;100665.03;5101028;27;20036;-75
2022/01/01 09:38:46;;;;;;;50.20;34.25;;;;;;;9.03;74.45;100679.97;5087086;28;20027;-74
2022/01/01 09:41:13;;;;;;;49.78;32.80;;;;;;;9.20;74.64;100682.78;5089423;28;20046;-73
2022/01/01 09:43:40;;;;;;;48.28;35.85;;;;;;;9.01;74.33;100670.34;5073471;28;20405;-85
2022/01/01 09:46:08;;;;;;;40.72;33.97;;;;;;;9.01;74.18;100662.50;5069472;28;20071;-74
2022/01/01 09:48:34;;;;;;;45.75;33.95;;;;;;;9.10;74.62;100673.06;5076794;28;20070;-75
2022/01/01 09:51:04;;;;;;;41.83;35.63;;;;;;;9.12;74.39;100660.88;5075085;28;20455;-76
2022/01/01 09:53:31;;;;;;;44.40;35.65;;;;;;;9.28;73.88;100673.25;5074292;28;20032;-75
2022/01/01 09:55:58;;;;;;;44.03;34.15;;;;;;;9.23;73.92;100642.66;5082130;28;20075;-75
2022/01/01 09:58:26;;;;;;;46.17;37.55;;;;;;;9.37;74.04;100661.13;5071942;28;20514;-75
2022/01/01 10:00:52;;;;;;;46.97;34.75;;;;;;;9.22;74.18;100646.13;5078869;28;20514;-75
2022/01/01 10:03:40;;;;;;;51.28;33.25;;;;;;;9.17;74.86;100687.97;5085039;28;20040;-74
2022/01/01 10:06:20;;;;;;;48.75;35.35;;;;;;;9.19;75.38;100638.25;5076873;28;20419;-75
2022/01/01 10:08:49;;;;;;;43.08;32.90;;;;;;;9.33;74.85;100644.50;5099396;28;20040;-75
2022/01/01 10:11:18;;;;;;;48.83;36.55;;;;;;;9.40;74.05;100634.94;5082035;28;20111;-75
2022/01/01 10:13:45;;;;;;;49.03;39.05;;;;;;;9.38;74.44;100648.03;5081458;28;20055;-85
2022/01/01 10:16:12;;;;;;;45.08;35.95;;;;;;;9.32;74.34;100642.75;5074941;28;20525;-73
2022/01/01 10:18:42;;;;;;;47.28;33.35;;;;;;;9.65;73.61;100662.22;5080725;28;20480;-77
2022/01/01 10:23:52;;;;;;;55.45;38.22;;;;;;;9.80;73.30;100669.31;5058767;28;23662;-75
2022/01/01 10:29:31;;;;;;;48.92;36.83;;;;;;;9.83;73.32;100644.03;5016263;28;20041;-74
2022/01/01 10:32:10;;;;;;;44.25;35.22;;;;;;;9.99;72.38;100636.25;5019532;28;20087;-86
2022/01/01 10:34:47;;;;;;;45.92;35.88;;;;;;;10.34;73.36;100674.03;5018402;28;20038;-73
2022/01/01 10:40:37;;;;;;;48.45;34.92;;;;;;;9.68;73.89;100629.06;5021300;28;20782;-73
2022/01/01 10:43:02;;;;;;;44.05;33.63;;;;;;;10.16;72.77;100655.59;5017774;28;20046;-73
2022/01/01 10:45:48;;;;;;;52.60;36.33;;;;;;;10.29;71.72;100659.16;5018570;28;20041;-74
2022/01/01 10:50:48;;;;;;;43.75;34.97;;;;;;;10.55;71.15;100668.03;5018324;28;20041;-74
2022/01/01 10:53:27;;;;;;;52.13;36.35;;;;;;;10.47;70.29;100646.13;5006271;28;20040;-75
2022/01/01 10:55:55;;;;;;;54.47;36.95;;;;;;;10.48;70.00;100636.50;5015637;28;20184;-75
2022/01/01 10:59:11;;;;;;;50.47;35.88;;;;;;;10.60;71.07;100654.91;5022569;28;20096;-75
2022/01/01 11:01:41;;;;;;;50.05;35.05;;;;;;;10.63;71.44;100669.81;5020372;28;20099;-75
2022/01/01 11:04:07;;;;;;;44.17;33.38;;;;;;;10.51;71.22;100653.16;5016669;28;20543;-74
2022/01/01 11:06:55;;;;;;;45.63;32.28;;;;;;;10.52;70.94;100625.16;5018804;28;20033;-74
2022/01/01 11:09:21;;;;;;;54.75;37.20;;;;;;;10.60;71.47;100660.16;5013586;28;20064;-73
2022/01/01 11:11:47;;;;;;;45.30;35.42;;;;;;;10.31;71.79;100637.31;5019795;28;20037;-73
2022/01/01 11:14:13;;;;;;;52.85;35.08;;;;;;;10.41;71.58;100661.84;5023887;28;20026;-74
2022/01/01 11:16:39;;;;;;;51.65;35.08;;;;;;;10.46;72.15;100667.09;5014104;28;20087;-74
2022/01/01 11:19:06;;;;;;;44.92;35.63;;;;;;;10.43;72.23;100659.25;5021045;28;20120;-73
2022/01/01 11:21:32;;;;;;;50.90;35.95;;;;;;;10.63;71.90;100644.47;5014744;28;20048;-74
2022/01/01 11:23:58;;;;;;;60.95;37.10;;;;;;;10.67;72.68;100688.19;5023151;28;20026;-75
2022/01/01 11:26:24;;;;;;;49.17;35.72;;;;;;;10.72;72.68;100688.22;5014860;28;20053;-74
2022/01/01 11:28:50;;;;;;;49.47;35.97;;;;;;;10.38;72.59;100674.09;5014761;28;20063;-86
2022/01/01 11:31:18;;;;;;;48.85;37.50;;;;;;;10.24;73.43;100663.47;5018789;28;20132;-74
2022/01/01 11:33:51;;;;;;;51.72;38.28;;;;;;;10.42;73.80;100683.69;4994531;28;20039;-74
2022/01/01 11:36:20;;;;;;;49.45;36.22;;;;;;;10.25;74.80;100655.59;4998303;28;20100;-75
2022/01/01 11:38:46;;;;;;;42.03;33.50;;;;;;;10.27;75.08;100646.00;5005212;28;20481;-72
2022/01/01 11:41:13;;;;;;;44.85;36.25;;;;;;;10.08;75.72;100638.91;5011531;28;20112;-74
2022/01/01 11:43:39;;;;;;;46.13;34.55;;;;;;;10.22;75.43;100655.59;4998032;28;20060;-75
2022/01/01 11:46:10;;;;;;;46.35;32.05;;;;;;;9.95;76.22;100617.00;5002098;28;20038;-74
2022/01/01 11:48:38;;;;;;;43.22;33.35;;;;;;;10.02;76.31;100625.75;4998198;28;20039;-66
2022/01/01 11:51:48;;;;;;;40.30;31.27;;;;;;;10.14;76.55;100650.31;4995652;28;20527;-72
2022/01/01 11:54:14;;;;;;;39.72;32.90;;;;;;;9.80;77.53;100625.63;4995240;28;20038;-67
2022/01/01 11:56:58;;;;;;;49.53;34.25;;;;;;;9.97;77.49;100636.22;4992938;28;20033;-69
2022/01/01 11:59:39;;;;;;;42.50;32.95;;;;;;;9.82;78.01;100631.75;4991273;28;20045;-73
2022/01/01 12:02:18;;;;;;;43.28;32.55;;;;;;;9.75;78.20;100603.78;5007179;28;20527;-74
2022/01/01 12:04:50;;;;;;;45.35;33.00;;;;;;;9.88;78.69;100637.06;4996336;28;20089;-77
2022/01/01 12:07:15;;;;;;;43.58;32.53;;;;;;;10.06;78.50;100652.00;4996545;28;20042;-77
2022/01/01 12:10:07;;;;;;;43.25;32.63;;;;;;;9.98;78.48;100621.41;4995459;28;20042;-78
2022/01/01 12:12:59;;;;;;;44.00;31.30;;;;;;;10.28;78.43;100650.44;4997061;28;20057;-78
2022/01/01 12:15:25;;;;;;;52.28;33.78;;;;;;;10.06;77.90;100614.44;4999791;28;20038;-88
2022/01/01 12:18:01;;;;;;;39.03;34.03;;;;;;;10.39;77.61;100657.47;5002219;28;20034;-74
2022/01/01 12:20:38;;;;;;;46.55;33.75;;;;;;;10.30;77.39;100634.69;5003504;28;20034;-76
2022/01/01 12:23:09;;;;;;;46.28;35.58;;;;;;;10.64;77.35;100666.31;4997292;28;20062;-89
2022/01/01 12:25:36;;;;;;;41.72;33.50;;;;;;;10.62;77.12;100647.06;4993999;28;20438;-78
2022/01/01 12:28:23;;;;;;;41.30;33.33;;;;;;;10.78;76.63;100662.88;5003870;28;20469;-76
2022/01/01 12:31:04;;;;;;;26.02;17.90;;;;;;;13.96;67.44;100642.53;4998393;28;20033;-74
2022/01/01 12:33:39;;;;;;;28.45;19.42;;;;;;;19.43;50.11;100677.91;4996745;28;20564;-77
2022/01/01 12:36:09;;;;;;;33.15;20.55;;;;;;;17.69;53.14;100659.81;5000172;28;20121;-76
2022/01/01 12:38:39;;;;;;;32.22;23.08;;;;;;;17.57;54.24;100653.94;5007242;28;20080;-74
2022/01/01 12:41:08;;;;;;;38.42;24.27;;;;;;;19.24;51.11;100659.00;4996726;28;20057;-74
2022/01/01 12:43:56;;;;;;;37.15;25.38;;;;;;;19.62;48.43;100652.44;4999970;28;20050;-73
2022/01/01 12:46:24;;;;;;;45.22;29.60;;;;;;;19.26;48.73;100647.41;4992827;28;20038;-73
2022/01/01 12:48:50;;;;;;;37.47;26.17;;;;;;;19.58;48.41;100659.66;5001607;28;20038;-73
2022/01/01 12:51:22;;;;;;;42.35;26.60;;;;;;;19.63;47.99;100671.94;4996871;28;21785;-73
2022/01/01 12:53:52;;;;;;;37.42;25.63;;;;;;;19.38;49.13;100668.28;4993098;28;20065;-73
2022/01/01 12:56:19;;;;;;;38.72;26.73;;;;;;;19.36;48.97;100646.19;5001996;28;20110;-73
2022/01/01 12:58:58;;;;;;;37.78;25.55;;;;;;;18.67;49.73;100661.59;4995923;28;20040;-76
2022/01/01 13:01:32;;;;;;;37.08;26.02;;;;;;;19.31;48.34;100636.59;4998712;28;20112;-74
2022/01/01 13:04:07;;;;;;;35.22;26.70;;;;;;;17.85;51.68;100640.88;4997441;28;20040;-73
2022/01/01 13:06:33;;;;;;;34.58;25.30;;;;;;;19.01;49.11;100638.44;5004530;28;20045;-73
2022/01/01 13:09:11;;;;;;;32.80;26.42;;;;;;;19.29;48.41;100627.78;4997093;28;20026;-73
2022/01/01 13:11:39;;;;;;;35.35;28.13;;;;;;;14.63;61.35;100646.16;5002745;28;20045;-64
2022/01/01 13:14:06;;;;;;;33.33;28.38;;;;;;;13.55;66.17;100656.97;4993640;28;20066;-80
2022/01/01 13:16:32;;;;;;;40.95;28.80;;;;;;;13.12;68.66;100672.19;4989603;28;20591;-76
2022/01/01 13:18:58;;;;;;;36.50;28.67;;;;;;;13.01;68.66;100645.91;4994835;28;20060;-73
2022/01/01 13:21:24;;;;;;;35.65;27.55;;;;;;;12.77;69.31;100647.78;5003910;28;20045;-73
2022/01/01 13:23:52;;;;;;;38.75;29.95;;;;;;;12.42;71.27;100690.06;5001276;28;20038;-75
2022/01/01 13:26:19;;;;;;;41.45;29.80;;;;;;;12.32;71.38;100678.69;5004197;28;20033;-72
2022/01/01 13:28:46;;;;;;;40.60;30.08;;;;;;;12.10;72.20;100658.56;5009622;28;20563;-73
2022/01/01 13:31:14;;;;;;;37.17;29.45;;;;;;;12.22;72.48;100690.09;5002658;28;20541;-85
2022/01/01 13:34:02;;;;;;;40.78;30.05;;;;;;;12.04;73.06;100678.75;5015286;28;20053;-73
2022/01/01 13:36:34;;;;;;;42.65;31.65;;;;;;;11.77;73.82;100663.84;4997724;28;20053;-73
2022/01/01 13:39:04;;;;;;;38.20;30.05;;;;;;;11.82;74.86;100687.50;4993903;28;20056;-79
2022/01/01 13:41:41;;;;;;;47.17;32.05;;;;;;;11.91;74.58;100668.25;4995829;28;20057;-84
2022/01/01 13:44:30;;;;;;;36.17;28.13;;;;;;;11.88;75.07;100670.91;5026907;28;20178;-73
2022/01/01 13:47:03;;;;;;;39.40;30.40;;;;;;;11.83;75.54;100669.09;4998249;28;20045;-74
2022/01/01 13:49:50;;;;;;;39.60;29.45;;;;;;;11.89;75.47;100694.53;5004527;28;20034;-74
2022/01/01 13:52:26;;;;;;;34.85;26.80;;;;;;;11.96;75.50;100692.78;4995477;28;20048;-74
2022/01/01 13:55:02;;;;;;;41.08;32.35;;;;;;;11.89;75.64;100701.56;5001504;28;20046;-74
2022/01/01 13:57:30;;;;;;;45.88;33.28;;;;;;;11.79;75.48;100696.28;4995694;28;20325;-73
2022/01/01 13:59:59;;;;;;;46.22;34.92;;;;;;;11.82;75.80;100693.66;5000781;28;20029;-73
2022/01/01 14:02:30;;;;;;;40.13;30.50;;;;;;;11.71;75.94;100692.78;4998400;28;20413;-72
2022/01/01 14:05:00;;;;;;;41.45;28.13;;;;;;;11.73;75.98;100690.13;4999797;28;20120;-84
2022/01/01 14:07:26;;;;;;;42.45;32.13;;;;;;;11.78;76.04;100707.69;5007484;28;20160;-74
2022/01/01 14:10:10;;;;;;;44.88;34.53;;;;;;;11.84;75.73;100714.69;4997506;28;20454;-74
2022/01/01 14:12:40;;;;;;;35.70;28.17;;;;;;;11.85;75.89;100711.19;5012770;28;21004;-73
2022/01/01 14:15:13;;;;;;;37.90;27.85;;;;;;;11.83;76.38;100726.09;5003732;28;20038;-73
2022/01/01 14:18:08;;;;;;;40.20;30.08;;;;;;;11.80;75.83;100720.84;4995779;28;20045;-73
2022/01/01 14:20:42;;;;;;;36.45;28.52;;;;;;;11.64;76.28;100709.44;5000655;28;20061;-73
2022/01/01 14:23:08;;;;;;;34.85;25.65;;;;;;;11.65;76.56;100734.81;5000515;28;20034;-82
2022/01/01 14:25:36;;;;;;;43.28;28.73;;;;;;;11.67;76.54;100724.31;4994876;28;20137;-77
2022/01/01 14:28:07;;;;;;;32.47;25.35;;;;;;;11.79;76.44;100742.72;5004885;28;20053;-73
2022/01/01 14:30:34;;;;;;;38.92;27.55;;;;;;;11.70;76.42;100735.69;4996616;28;20374;-73
2022/01/01 14:33:05;;;;;;;40.53;29.23;;;;;;;11.67;76.50;100733.09;5001845;28;20044;-73
2022/01/01 14:35:32;;;;;;;42.35;30.90;;;;;;;11.28;77.23;100732.13;5007019;28;20022;-73
2022/01/01 14:38:00;;;;;;;32.60;28.13;;;;;;;11.17;77.83;100729.50;4997257;28;20482;-73
2022/01/01 14:40:26;;;;;;;39.42;31.05;;;;;;;11.27;78.51;100750.53;4990410;28;20060;-73
2022/01/01 14:42:52;;;;;;;39.30;29.00;;;;;;;11.31;78.21;100744.44;4992538;28;20141;-74
2022/01/01 14:45:18;;;;;;;46.08;30.23;;;;;;;11.44;77.56;100742.69;5009255;28;20152;-74
2022/01/01 14:48:16;;;;;;;37.75;28.77;;;;;;;11.18;78.60;100710.22;4992843;28;20042;-74
2022/01/01 14:51:04;;;;;;;50.10;26.45;;;;;;;11.17;78.92;100739.13;4995155;28;20061;-82
2022/01/01 14:54:02;;;;;;;33.95;29.60;;;;;;;10.79;79.84;100708.34;4998769;28;20035;-69
2022/01/01 14:56:40;;;;;;;34.95;26.77;;;;;;;10.87;79.95;100718.91;4981326;28;20033;-69
2022/01/01 14:59:13;;;;;;;42.00;28.17;;;;;;;10.81;79.83;100701.38;4979183;28;20050;-73
2022/01/01 15:01:39;;;;;;;;;;;;;;;10.84;80.20;100721.50;5003765;28;20069;-70
2022/01/01 15:04:04;;;;;;;32.83;27.52;;;;;;;10.97;79.95;100733.81;5004313;28;20368;-72
2022/01/01 15:13:15;;;;;;;42.00;29.98;;;;;;;10.85;79.73;100737.25;5011645;28;20044;-71
2022/01/01 15:15:40;;;;;;;38.28;30.13;;;;;;;10.66;79.44;100720.56;5007568;28;20062;-72
2022/01/01 15:18:08;;;;;;;36.97;29.05;;;;;;;10.58;80.63;100751.13;4999435;28;20135;-76
2022/01/01 15:24:01;;;;;;;48.38;32.63;;;;;;;10.39;80.47;100762.38;5015400;28;20091;-74
2022/01/01 15:26:27;;;;;;;38.97;31.88;;;;;;;10.29;80.37;100779.81;4999519;28;20073;-79
2022/01/01 15:28:56;;;;;;;40.85;33.63;;;;;;;10.18;80.42;100784.94;4997008;28;20533;-74
2022/01/01 15:31:36;;;;;;;49.83;32.80;;;;;;;10.21;80.82;100771.88;4995582;28;20148;-74